Portada
METAR-TAF:

METAR-TAF

Aeroports :

Chièvres, Bèlgica

latitud: 50-34N, longitud: 003-50E, altitud: 60 m

Observació

L'informe es va fer fa 28 minuts, a les 08:25 UTC
Vent 3 kt del Oest
Temperatura 19°C
Humitat 56%
Pressió 1027 hPa
Visibilitat 10 km o més

METAR: EBCV 220825Z AUTO 26003KT 9999 NCD 19/10 Q1027 BLU

Hora: 10:53 (08:53 UTC)

Pronòstic

L'informe es va fer fa 3 hores i 12 minuts, a les 05:41 UTC
Pronòstic vàlid del 22 a les 07 UTC al 22 a les 16 UTC
Vent 3 kt amb direcció variable
Visibilitat 10 km o més
Escasses núvols a una alçada de 23000 ft
Temporalment
l' 22 a les 12 UTC al 22 a les 16 UTC
Escasses núvols a una alçada de 3000 ft

TAF: EBCV 220541Z 2207/2216 VRB03KT 9999 FEW230 TEMPO 2212/2216 FEW030 BY EBWM

Observacions i pronòstics meteorològics de més de 4000 aeroports (METAR i TAF).

Les estacions disponibles són els punts grocs i vermells al mapa.

Posi el ratolí al punt desitjat per veure el nom de l'estació.

Feu clic per veure les observacions i els pronòstics meteorològics.

Per canviar el mapa: feu clic els botons verds amb una creu de color negre per apropar; al botó verd amb un guió per allunyar la imatge; o en les fletxes verdes per a mapes adjacents.


METAR-TAF: